Time;durP1;ratioP1;P1;durP2;ratioP2;P2;SDS_P1;SDS_P2;PMS_P1;PMS_P2;Temp;Humidity;BMP_temperature;BMP_pressure;BME280_temperature;BME280_humidity;BME280_pressure;Samples;Min_cycle;Max_cycle;Signal;HPM_P1;HPM_P2
2022/08/11 00:00:12;;;;;;;3.85;2.92;;;19.90;99.90;;;;;;6368086;22;20501;-70
2022/08/11 00:02:51;;;;;;;3.92;3.40;;;19.80;99.90;;;;;;6368487;22;20082;-67
2022/08/11 00:05:19;;;;;;;7.38;3.17;;;19.80;99.90;;;;;;6368623;22;20006;-67
2022/08/11 00:07:53;;;;;;;6.15;3.13;;;19.80;99.90;;;;;;6368263;22;20034;-65
2022/08/11 00:10:27;;;;;;;3.15;2.90;;;19.70;99.90;;;;;;6369102;22;20009;-65
2022/08/11 00:12:56;;;;;;;3.50;3.20;;;19.70;99.90;;;;;;6371006;22;20008;-65
2022/08/11 00:15:25;;;;;;;3.33;3.03;;;19.70;99.90;;;;;;6369472;22;20378;-66
2022/08/11 00:18:00;;;;;;;3.00;2.75;;;19.70;99.90;;;;;;6370874;22;20021;-65
2022/08/11 00:20:32;;;;;;;4.20;2.83;;;19.60;99.90;;;;;;6370632;22;19995;-66
2022/08/11 00:23:18;;;;;;;3.63;3.00;;;19.60;99.90;;;;;;6369927;22;20071;-66
2022/08/11 00:25:46;;;;;;;8.35;3.38;;;19.60;99.90;;;;;;6370948;22;20002;-66
2022/08/11 00:28:29;;;;;;;7.30;2.90;;;19.70;99.90;;;;;;6370199;22;20435;-66
2022/08/11 00:30:58;;;;;;;4.40;3.05;;;19.70;99.90;;;;;;6370812;22;20025;-65
2022/08/11 00:33:32;;;;;;;4.00;3.60;;;19.60;99.90;;;;;;6370276;22;20025;-66
2022/08/11 00:36:00;;;;;;;3.90;3.00;;;19.60;99.90;;;;;;6369926;22;20042;-66
2022/08/11 00:38:30;;;;;;;6.70;3.65;;;19.60;99.90;;;;;;6370747;22;19994;-66
2022/08/11 00:41:13;;;;;;;4.00;3.67;;;19.50;99.90;;;;;;6370941;22;19998;-65
2022/08/11 00:44:06;;;;;;;4.30;3.90;;;19.40;99.90;;;;;;6369666;22;20433;-67
2022/08/11 00:46:57;;;;;;;5.47;4.30;;;19.40;99.90;;;;;;6370779;22;20009;-66
2022/08/11 00:49:34;;;;;;;4.40;4.00;;;19.50;99.90;;;;;;6370045;22;20398;-66
2022/08/11 00:52:30;;;;;;;4.50;3.80;;;19.50;99.90;;;;;;6370482;22;20115;-66
2022/08/11 00:55:16;;;;;;;4.35;3.60;;;19.40;99.90;;;;;;6370568;22;20010;-66
2022/08/11 00:57:55;;;;;;;4.22;3.83;;;19.40;99.90;;;;;;6369932;22;20002;-67
2022/08/11 01:00:23;;;;;;;4.20;3.63;;;19.30;99.90;;;;;;6370223;22;20022;-67
2022/08/11 01:02:58;;;;;;;3.78;3.45;;;19.40;99.90;;;;;;6370545;22;20010;-67
2022/08/11 01:05:55;;;;;;;5.90;3.88;;;19.40;99.90;;;;;;6369301;22;20013;-66
2022/08/11 01:08:40;;;;;;;5.85;4.25;;;19.30;99.90;;;;;;6368146;22;20002;-66
2022/08/11 01:11:31;;;;;;;7.13;3.80;;;19.30;99.90;;;;;;6369117;22;19998;-66
2022/08/11 01:14:24;;;;;;;5.80;3.65;;;19.20;99.90;;;;;;6370132;22;20078;-66
2022/08/11 01:17:52;;;;;;;7.72;3.58;;;19.10;99.90;;;;;;6370009;22;20137;-66
2022/08/11 01:21:02;;;;;;;4.75;3.47;;;19.10;99.90;;;;;;6349289;22;20355;-67
2022/08/11 01:24:01;;;;;;;5.63;3.35;;;19.00;99.90;;;;;;6329793;22;20052;-66
2022/08/11 01:26:53;;;;;;;3.58;3.28;;;19.00;99.90;;;;;;6370324;22;20002;-66
2022/08/11 01:29:46;;;;;;;6.65;3.63;;;19.00;99.90;;;;;;6370625;22;20015;-66
2022/08/11 01:32:39;;;;;;;4.78;3.35;;;19.00;99.90;;;;;;6369454;22;20022;-66
2022/08/11 01:35:11;;;;;;;3.88;3.55;;;19.00;99.90;;;;;;6369869;22;20074;-66
2022/08/11 01:38:14;;;;;;;3.78;3.38;;;18.90;99.90;;;;;;6369649;22;20502;-66
2022/08/11 01:41:01;;;;;;;3.55;3.25;;;18.90;99.90;;;;;;6369224;22;20010;-66
2022/08/11 01:46:25;;;;;;;3.22;2.92;;;18.80;99.90;;;;;;6368504;22;20296;-66
2022/08/11 01:49:13;;;;;;;4.20;3.13;;;18.80;99.90;;;;;;6369135;22;20006;-66
2022/08/11 01:52:00;;;;;;;3.97;3.22;;;18.80;99.90;;;;;;6369493;22;20013;-66
2022/08/11 01:54:42;;;;;;;3.42;3.20;;;18.80;99.90;;;;;;6368912;22;20001;-66
2022/08/11 01:57:41;;;;;;;3.75;3.15;;;18.80;99.90;;;;;;6369061;22;20010;-67
2022/08/11 02:00:18;;;;;;;4.85;3.60;;;18.80;99.90;;;;;;6358777;22;20449;-65
2022/08/11 02:03:05;;;;;;;5.57;3.25;;;18.80;99.90;;;;;;6370508;22;20003;-66
2022/08/11 02:05:49;;;;;;;4.22;3.47;;;18.80;99.90;;;;;;6369610;22;20007;-67
2022/08/11 02:08:34;;;;;;;4.65;3.50;;;18.70;99.90;;;;;;6368467;22;19999;-68
2022/08/11 02:11:29;;;;;;;3.78;3.30;;;18.70;99.90;;;;;;6368861;22;20442;-67
2022/08/11 02:14:19;;;;;;;4.38;3.50;;;18.60;99.90;;;;;;6340530;22;20037;-67
2022/08/11 02:17:11;;;;;;;3.60;3.30;;;18.60;99.90;;;;;;6369431;22;20056;-66
2022/08/11 02:26:24;;;;;;;6.70;3.22;;;18.50;99.90;;;;;;6211853;23;20009;-65
2022/08/11 02:29:31;;;;;;;3.75;3.13;;;18.40;99.90;;;;;;6210713;23;20008;-66
2022/08/11 02:35:27;;;;;;;6.20;3.75;;;18.40;99.90;;;;;;6368048;22;20079;-66
2022/08/11 02:38:18;;;;;;;7.43;3.30;;;18.40;99.90;;;;;;6369476;22;20012;-67
2022/08/11 02:40:56;;;;;;;4.10;3.35;;;18.30;99.90;;;;;;6369394;22;20005;-67
2022/08/11 02:43:50;;;;;;;5.90;3.83;;;18.40;99.90;;;;;;6368024;22;20005;-67
2022/08/11 02:46:25;;;;;;;3.72;3.42;;;18.40;99.90;;;;;;6298849;22;20074;-67
2022/08/11 02:52:18;;;;;;;4.45;3.30;;;18.30;99.90;;;;;;6368943;22;20013;-66
2022/08/11 02:55:02;;;;;;;12.88;3.80;;;18.30;99.90;;;;;;6304826;22;20002;-66
2022/08/11 02:57:37;;;;;;;4.40;3.80;;;18.30;99.90;;;;;;6368820;22;20374;-67
2022/08/11 03:00:13;;;;;;;5.65;3.35;;;18.30;99.90;;;;;;6368776;22;19998;-67
2022/08/11 03:03:17;;;;;;;3.60;3.30;;;18.20;99.90;;;;;;6368776;22;20422;-67
2022/08/11 03:06:03;;;;;;;3.80;3.50;;;18.20;99.90;;;;;;6368987;22;20006;-67
2022/08/11 03:08:39;;;;;;;6.75;4.18;;;18.10;99.90;;;;;;6368700;22;20303;-66
2022/08/11 03:17:03;;;;;;;4.32;4.00;;;18.10;99.90;;;;;;6368426;22;20071;-66
2022/08/11 03:19:40;;;;;;;4.28;3.67;;;18.10;99.90;;;;;;6368188;22;19998;-66
2022/08/11 03:22:22;;;;;;;4.68;4.30;;;18.00;99.90;;;;;;6368276;22;20013;-66
2022/08/11 03:24:53;;;;;;;4.32;3.90;;;18.10;99.90;;;;;;6368201;22;20008;-66
2022/08/11 03:27:40;;;;;;;5.70;3.88;;;18.00;99.90;;;;;;6369271;22;19999;-67
2022/08/11 03:30:47;;;;;;;5.10;3.80;;;18.00;99.90;;;;;;6367993;22;20696;-67
2022/08/11 03:36:11;;;;;;;6.45;3.65;;;17.90;99.90;;;;;;6368863;22;20337;-68
2022/08/11 03:38:55;;;;;;;5.65;4.00;;;17.90;99.90;;;;;;6367576;22;20025;-67
2022/08/11 03:41:45;;;;;;;4.85;3.92;;;17.90;99.90;;;;;;6368420;22;20022;-67
2022/08/11 03:44:20;;;;;;;4.72;4.10;;;17.90;99.90;;;;;;6368485;22;20002;-68
2022/08/11 03:47:32;;;;;;;5.70;3.97;;;17.80;99.90;;;;;;6369404;22;20430;-67
2022/08/11 03:50:23;;;;;;;5.43;4.32;;;17.80;99.90;;;;;;6371253;22;19999;-67
2022/08/11 03:53:27;;;;;;;4.53;4.13;;;17.80;99.90;;;;;;6370130;22;20052;-66
2022/08/11 03:56:07;;;;;;;6.28;4.35;;;17.80;99.90;;;;;;6370717;22;20010;-66
2022/08/11 03:59:16;;;;;;;4.85;4.20;;;17.70;99.90;;;;;;6371021;22;20005;-66
2022/08/11 04:02:02;;;;;;;4.28;3.88;;;17.70;99.90;;;;;;6328505;22;20075;-66
2022/08/11 04:04:43;;;;;;;7.97;4.07;;;17.70;99.90;;;;;;6370271;22;20320;-67
2022/08/11 04:07:24;;;;;;;6.43;4.07;;;17.70;99.90;;;;;;6369352;22;20128;-66
2022/08/11 04:10:11;;;;;;;5.25;3.88;;;17.70;99.90;;;;;;6370815;22;20003;-66
2022/08/11 04:13:02;;;;;;;4.72;4.05;;;17.70;99.90;;;;;;6370155;22;20474;-66
2022/08/11 04:16:03;;;;;;;4.10;3.75;;;17.70;99.90;;;;;;6369078;22;20028;-66
2022/08/11 04:18:53;;;;;;;6.47;4.20;;;17.70;99.90;;;;;;6369925;22;20342;-66
2022/08/11 04:22:06;;;;;;;4.55;4.15;;;17.70;99.90;;;;;;6368904;22;20002;-66
2022/08/11 04:25:10;;;;;;;5.32;3.50;;;17.70;99.90;;;;;;6370290;22;20061;-66
2022/08/11 04:27:39;;;;;;;3.83;3.53;;;17.70;99.90;;;;;;6367925;22;20420;-66
2022/08/11 04:30:31;;;;;;;4.35;3.60;;;17.70;99.90;;;;;;6369463;22;20002;-66
2022/08/11 04:33:47;;;;;;;5.05;3.78;;;17.70;99.90;;;;;;6369942;22;20006;-66
2022/08/11 04:39:42;;;;;;;4.55;4.18;;;17.70;99.90;;;;;;6212327;23;20062;-67
2022/08/11 04:46:08;;;;;;;7.55;5.85;;;17.70;99.90;;;;;;6369703;22;20052;-67
2022/08/11 05:01:42;;;;;;;5.53;4.53;;;17.70;99.90;;;;;;6370227;22;20029;-66
2022/08/11 05:07:54;;;;;;;7.47;4.45;;;17.70;99.90;;;;;;6370099;22;20021;-67
2022/08/11 05:10:50;;;;;;;6.85;4.07;;;17.80;99.90;;;;;;6369075;22;20002;-67
2022/08/11 05:36:35;;;;;;;5.90;4.63;;;18.30;99.90;;;;;;6367022;22;20510;-67
2022/08/11 05:56:19;;;;;;;8.38;5.45;;;18.70;99.90;;;;;;6369012;22;20029;-66
2022/08/11 05:58:53;;;;;;;5.55;5.05;;;18.80;99.90;;;;;;6369405;22;20026;-66
2022/08/11 06:01:24;;;;;;;6.20;5.68;;;18.80;99.90;;;;;;6367689;22;20011;-66
2022/08/11 06:04:13;;;;;;;11.15;5.60;;;18.90;99.90;;;;;;6368637;22;20454;-66
2022/08/11 06:07:00;;;;;;;5.43;4.85;;;19.00;99.90;;;;;;6368242;22;20050;-66
2022/08/11 06:09:38;;;;;;;5.28;4.82;;;19.00;99.90;;;;;;6367592;22;20005;-66
2022/08/11 06:12:16;;;;;;;8.32;5.65;;;19.10;99.90;;;;;;6368543;22;20051;-66
2022/08/11 06:14:44;;;;;;;4.65;4.25;;;19.10;99.90;;;;;;6368071;22;20005;-66
2022/08/11 06:17:12;;;;;;;7.03;6.35;;;19.20;99.90;;;;;;6368691;22;20010;-66
2022/08/11 06:19:40;;;;;;;9.98;5.03;;;19.30;99.90;;;;;;6368607;22;19994;-66
2022/08/11 06:22:10;;;;;;;6.35;4.65;;;19.30;99.90;;;;;;6367218;22;20014;-66
2022/08/11 06:24:49;;;;;;;5.03;4.63;;;19.40;99.90;;;;;;6368761;22;20049;-66
2022/08/11 06:27:20;;;;;;;6.30;5.70;;;19.40;99.90;;;;;;6367972;22;20087;-66
2022/08/11 06:29:49;;;;;;;5.35;4.85;;;19.50;99.90;;;;;;6368965;22;20013;-66
2022/08/11 06:32:16;;;;;;;9.45;4.95;;;19.50;99.90;;;;;;6368494;22;20005;-66
2022/08/11 06:35:10;;;;;;;6.35;5.57;;;19.50;99.90;;;;;;6367654;22;20091;-66
2022/08/11 06:38:06;;;;;;;6.18;4.53;;;19.60;99.90;;;;;;6369011;22;20037;-66
2022/08/11 06:44:11;;;;;;;6.03;4.28;;;19.70;99.90;;;;;;6328641;22;20029;-66
2022/08/11 06:46:46;;;;;;;9.10;4.22;;;19.80;99.90;;;;;;6368721;22;19998;-65
2022/08/11 06:52:05;;;;;;;8.63;4.40;;;20.00;99.90;;;;;;6368320;22;20013;-65
2022/08/11 06:54:40;;;;;;;5.40;4.90;;;20.00;99.90;;;;;;6368745;22;20005;-66
2022/08/11 07:02:47;;;;;;;5.75;4.28;;;20.20;99.90;;;;;;6367770;22;20014;-66
2022/08/11 07:05:15;;;;;;;5.30;4.00;;;20.40;99.90;;;;;;6368900;22;20078;-66
2022/08/11 07:16:46;;;;;;;4.75;3.58;;;20.90;99.90;;;;;;6354375;22;20485;-65
2022/08/11 07:30:30;;;;;;;8.45;3.90;;;21.20;99.90;;;;;;6367169;22;20006;-67
2022/08/11 07:32:59;;;;;;;7.35;3.10;;;21.30;99.90;;;;;;6367941;22;20018;-67
2022/08/11 07:35:35;;;;;;;4.75;3.35;;;21.40;99.90;;;;;;6368181;22;20054;-67
2022/08/11 07:38:10;;;;;;;3.22;2.97;;;21.50;99.90;;;;;;6367077;22;20030;-67
2022/08/11 07:40:36;;;;;;;6.40;3.85;;;21.60;99.90;;;;;;6368033;22;20066;-66
2022/08/11 07:43:03;;;;;;;5.05;3.08;;;21.60;99.90;;;;;;6368041;22;20116;-66
2022/08/11 07:53:45;;;;;;;3.42;3.13;;;22.00;99.90;;;;;;6367451;22;20009;-68
2022/08/11 07:56:15;;;;;;;5.30;3.47;;;22.10;99.90;;;;;;6367461;22;20064;-68
2022/08/11 08:18:07;;;;;;;5.70;2.72;;;22.90;98.50;;;;;;6367689;22;20348;-66
2022/08/11 08:20:44;;;;;;;3.15;2.70;;;23.00;98.50;;;;;;6367193;22;19998;-66
2022/08/11 08:23:11;;;;;;;4.63;3.05;;;23.10;98.40;;;;;;6367885;22;19998;-66
2022/08/11 08:25:42;;;;;;;7.38;2.85;;;23.20;98.30;;;;;;6368251;22;20037;-67
2022/08/11 08:28:15;;;;;;;3.13;2.65;;;23.40;97.80;;;;;;6366125;22;20032;-67
2022/08/11 08:30:54;;;;;;;6.78;2.53;;;23.40;97.50;;;;;;6367648;22;20008;-67
2022/08/11 08:33:23;;;;;;;3.97;2.47;;;23.50;97.30;;;;;;6368654;22;20018;-66
2022/08/11 08:36:10;;;;;;;3.00;2.78;;;23.50;97.50;;;;;;6369241;22;20058;-66
2022/08/11 08:38:40;;;;;;;4.35;2.80;;;23.60;97.30;;;;;;6369517;22;20058;-67
2022/08/11 08:41:06;;;;;;;7.97;2.92;;;23.60;96.90;;;;;;6368732;22;20005;-67
2022/08/11 08:43:36;;;;;;;4.32;3.38;;;23.60;96.70;;;;;;6369621;22;20010;-67
2022/08/11 08:46:07;;;;;;;4.70;2.78;;;23.70;96.60;;;;;;6369270;22;20006;-66
2022/08/11 08:48:35;;;;;;;4.65;2.95;;;23.70;96.60;;;;;;6369110;22;20322;-67
2022/08/11 08:53:51;;;;;;;3.55;2.50;;;24.00;96.70;;;;;;6369168;22;20074;-66
2022/08/11 08:56:19;;;;;;;4.28;2.75;;;24.10;96.20;;;;;;6368317;22;20018;-66
2022/08/11 08:58:48;;;;;;;6.80;3.03;;;24.30;95.80;;;;;;6369894;22;20006;-66
2022/08/11 09:01:15;;;;;;;8.70;3.40;;;24.40;95.60;;;;;;6369046;22;20009;-66
2022/08/11 09:03:42;;;;;;;8.05;3.95;;;24.50;95.20;;;;;;6368834;22;20074;-67
2022/08/11 09:06:08;;;;;;;5.93;2.97;;;24.60;94.90;;;;;;6369552;22;20002;-66
2022/08/11 09:08:35;;;;;;;5.78;3.08;;;24.60;94.50;;;;;;6369801;22;19998;-67
2022/08/11 09:13:47;;;;;;;2.92;2.72;;;24.80;93.70;;;;;;6369562;22;20008;-66
2022/08/11 09:16:15;;;;;;;6.00;3.67;;;24.90;93.50;;;;;;6368532;22;20107;-67
2022/08/11 09:18:43;;;;;;;7.60;3.25;;;25.00;93.30;;;;;;6369284;22;19998;-67
2022/08/11 09:21:11;;;;;;;3.45;2.58;;;25.00;92.60;;;;;;6369141;22;20410;-66
2022/08/11 09:29:08;;;;;;;5.20;2.83;;;25.30;91.70;;;;;;6368809;22;20112;-67
2022/08/11 09:31:34;;;;;;;3.45;2.75;;;25.40;91.90;;;;;;6368529;22;20034;-67
2022/08/11 09:34:01;;;;;;;6.30;2.85;;;25.60;90.90;;;;;;6368054;22;20019;-67
2022/08/11 09:42:01;;;;;;;5.30;3.08;;;25.90;90.50;;;;;;6369098;22;20032;-67
2022/08/11 09:47:14;;;;;;;3.55;2.53;;;26.00;90.30;;;;;;6368563;22;20510;-67
2022/08/11 09:49:43;;;;;;;3.88;2.63;;;26.10;90.60;;;;;;6369234;22;20003;-68
2022/08/11 09:52:13;;;;;;;10.10;3.17;;;26.10;90.70;;;;;;6367454;22;20011;-67
2022/08/11 09:54:40;;;;;;;3.05;2.65;;;26.10;90.90;;;;;;6369210;22;19998;-66
2022/08/11 09:59:52;;;;;;;3.53;2.83;;;26.30;90.10;;;;;;6367642;22;20025;-67
2022/08/11 10:02:26;;;;;;;5.53;2.67;;;26.50;89.40;;;;;;6368771;22;20010;-67
2022/08/11 10:07:00;;;;;;;4.75;2.63;;;26.50;89.10;;;;;;6369050;22;20003;-66
2022/08/11 10:07:49;;;;;;;9.35;3.10;;;26.60;89.10;;;;;;6368785;22;20013;-66
2022/08/11 10:10:21;;;;;;;6.90;2.60;;;26.80;88.20;;;;;;6368298;22;20002;-66
2022/08/11 10:12:49;;;;;;;3.05;2.47;;;26.90;87.00;;;;;;6368234;22;20002;-66
2022/08/11 10:15:32;;;;;;;3.95;2.53;;;27.00;85.30;;;;;;6368754;22;20006;-66
2022/08/11 10:20:50;;;;;;;3.60;2.40;;;27.10;83.90;;;;;;6368233;22;20033;-66
2022/08/11 10:28:46;;;;;;;2.50;2.25;;;27.30;83.10;;;;;;6368614;22;20475;-66
2022/08/11 10:34:00;;;;;;;2.25;2.05;;;27.40;82.50;;;;;;6368650;22;20340;-66
2022/08/11 10:36:47;;;;;;;4.70;2.17;;;27.50;81.60;;;;;;6369678;22;20045;-67
2022/08/11 10:39:15;;;;;;;2.65;2.35;;;27.50;82.30;;;;;;6369448;22;19994;-66
2022/08/11 10:44:36;;;;;;;5.53;2.20;;;27.70;81.80;;;;;;6369100;22;20090;-66
2022/08/11 10:51:11;;;;;;;5.82;2.28;;;27.80;80.00;;;;;;6368676;22;20025;-66
2022/08/11 11:00:47;;;;;;;2.30;2.20;;;28.00;79.00;;;;;;6368426;22;20322;-66
2022/08/11 11:03:13;;;;;;;2.70;1.98;;;28.20;78.20;;;;;;6366992;22;20459;-66
2022/08/11 11:05:40;;;;;;;7.68;2.15;;;28.20;77.50;;;;;;6368236;22;20030;-66
2022/08/11 11:11:06;;;;;;;4.13;2.13;;;28.30;76.40;;;;;;6368141;22;20352;-66
2022/08/11 11:19:08;;;;;;;2.78;2.30;;;28.40;77.90;;;;;;6368061;22;20476;-67
2022/08/11 11:21:36;;;;;;;3.92;2.20;;;28.40;77.40;;;;;;6367790;22;20006;-67
2022/08/11 11:24:13;;;;;;;3.75;2.20;;;28.50;77.00;;;;;;6367396;22;19996;-66
2022/08/11 11:26:55;;;;;;;2.78;2.00;;;28.60;77.00;;;;;;6368827;22;20006;-67
2022/08/11 11:29:49;;;;;;;3.75;1.98;;;28.60;75.20;;;;;;6368585;22;19994;-67
2022/08/11 11:32:55;;;;;;;3.50;1.80;;;28.80;75.70;;;;;;6368524;22;20368;-67
2022/08/11 11:35:45;;;;;;;5.32;1.90;;;28.90;74.80;;;;;;6364780;22;20047;-66
2022/08/11 11:38:12;;;;;;;2.63;1.60;;;29.00;75.40;;;;;;6363146;22;20013;-67
2022/08/11 11:40:39;;;;;;;5.13;1.83;;;29.10;75.20;;;;;;6365902;22;20481;-67
2022/08/11 11:43:05;;;;;;;2.40;1.98;;;29.10;74.70;;;;;;6366492;22;20002;-66
2022/08/11 11:45:32;;;;;;;4.95;1.73;;;29.10;73.80;;;;;;6365925;22;20006;-66
2022/08/11 11:47:59;;;;;;;4.57;2.20;;;29.20;73.60;;;;;;6336854;22;20086;-66
2022/08/11 11:50:28;;;;;;;3.80;1.88;;;29.20;72.70;;;;;;6365137;22;20406;-66
2022/08/11 11:52:54;;;;;;;2.15;1.80;;;29.20;72.90;;;;;;6363867;22;20330;-66
2022/08/11 11:55:25;;;;;;;5.38;2.17;;;29.20;72.20;;;;;;6366190;22;20065;-66
2022/08/11 12:03:23;;;;;;;4.00;1.90;;;29.40;72.90;;;;;;6366472;22;20029;-66
2022/08/11 12:05:51;;;;;;;10.30;2.17;;;29.40;71.90;;;;;;6365785;22;20003;-66
2022/08/11 12:08:21;;;;;;;3.53;1.90;;;29.50;71.70;;;;;;6368295;22;20003;-66
2022/08/11 12:13:39;;;;;;;1.60;1.50;;;29.70;71.90;;;;;;6366637;22;20009;-66
2022/08/11 12:16:07;;;;;;;1.95;1.73;;;29.70;70.50;;;;;;6368554;22;20014;-66
2022/08/11 12:18:34;;;;;;;2.60;2.17;;;29.80;70.70;;;;;;6366695;22;20006;-66
2022/08/11 12:21:01;;;;;;;2.80;1.80;;;29.90;70.50;;;;;;6367779;22;20002;-66
2022/08/11 12:29:01;;;;;;;2.80;2.60;;;30.00;69.30;;;;;;6367149;22;20382;-67
2022/08/11 12:31:31;;;;;;;2.97;2.03;;;30.10;68.80;;;;;;6370428;22;20002;-66
2022/08/11 12:34:02;;;;;;;3.78;2.28;;;30.10;69.80;;;;;;6368957;22;20022;-67
2022/08/11 12:36:35;;;;;;;4.82;2.35;;;30.20;70.20;;;;;;6370394;22;20049;-67
2022/08/11 12:39:06;;;;;;;3.08;2.22;;;30.30;70.40;;;;;;6369741;22;20002;-67
2022/08/11 12:47:04;;;;;;;2.50;1.90;;;30.60;67.80;;;;;;6369063;22;20014;-66
2022/08/11 12:52:24;;;;;;;2.13;1.92;;;30.70;67.40;;;;;;6370072;22;20111;-67
2022/08/11 12:55:05;;;;;;;5.63;2.80;;;30.60;66.90;;;;;;6369059;22;20002;-67
2022/08/11 13:06:06;;;;;;;2.75;1.90;;;30.70;64.70;;;;;;6368732;22;20059;-66
2022/08/11 13:08:36;;;;;;;3.88;2.20;;;30.80;64.90;;;;;;6368666;22;20426;-65
2022/08/11 13:13:49;;;;;;;4.82;1.83;;;31.00;66.20;;;;;;6369807;22;20021;-67
2022/08/11 13:16:16;;;;;;;3.75;2.45;;;31.20;65.00;;;;;;6368982;22;20010;-66
2022/08/11 13:18:43;;;;;;;2.15;2.05;;;31.30;64.90;;;;;;6369599;22;20010;-66
2022/08/11 13:21:10;;;;;;;2.35;1.85;;;31.40;64.70;;;;;;6369914;22;20006;-66
2022/08/11 13:23:37;;;;;;;4.18;2.05;;;31.50;64.80;;;;;;6369364;22;20365;-66
2022/08/11 13:26:03;;;;;;;9.85;2.00;;;31.50;64.70;;;;;;6369461;22;20029;-66
2022/08/11 13:28:30;;;;;;;5.18;2.42;;;31.60;64.90;;;;;;6370419;22;20002;-67
2022/08/11 13:31:11;;;;;;;3.70;2.20;;;31.60;64.70;;;;;;6369973;22;20033;-65
2022/08/11 13:33:42;;;;;;;2.30;2.10;;;31.80;64.50;;;;;;6371127;22;20346;-68
2022/08/11 13:36:09;;;;;;;2.28;2.03;;;31.90;64.30;;;;;;6369506;22;20059;-67
2022/08/11 13:38:36;;;;;;;5.45;2.10;;;31.90;63.40;;;;;;6368971;22;20007;-67
2022/08/11 13:41:36;;;;;;;4.15;2.58;;;31.90;62.50;;;;;;6369628;22;20006;-67
2022/08/11 13:43:48;;;;;;;2.97;2.00;;;31.90;62.40;;;;;;6368754;22;20009;-67
2022/08/11 13:46:19;;;;;;;4.47;2.10;;;32.00;62.70;;;;;;6369501;22;20065;-67
2022/08/11 13:48:45;;;;;;;1.92;1.80;;;32.00;63.40;;;;;;6369532;22;20433;-67
2022/08/11 13:51:29;;;;;;;3.70;2.00;;;32.00;62.90;;;;;;6368409;22;20008;-67
2022/08/11 13:54:20;;;;;;;1.77;1.67;;;32.10;62.30;;;;;;6369648;22;20403;-67
2022/08/11 13:56:48;;;;;;;4.15;2.05;;;32.20;62.00;;;;;;6369380;22;20434;-67
2022/08/11 13:59:24;;;;;;;3.00;1.80;;;32.30;61.60;;;;;;6368569;22;20060;-64
2022/08/11 14:01:55;;;;;;;3.85;2.42;;;32.40;60.90;;;;;;6368504;22;20016;-64
2022/08/11 14:04:39;;;;;;;2.58;1.88;;;32.50;62.00;;;;;;6368079;22;20001;-65
2022/08/11 14:07:07;;;;;;;4.72;2.22;;;32.60;60.10;;;;;;6369345;22;20048;-64
2022/08/11 14:09:41;;;;;;;5.00;1.77;;;32.80;61.40;;;;;;6369817;22;19998;-66
2022/08/11 14:15:18;;;;;;;5.47;2.42;;;33.00;61.30;;;;;;6369556;22;20048;-67
2022/08/11 14:17:48;;;;;;;2.38;1.73;;;33.00;61.10;;;;;;6369456;22;20006;-66
2022/08/11 14:20:17;;;;;;;2.08;1.80;;;33.00;60.60;;;;;;6365961;22;20069;-66
2022/08/11 14:22:45;;;;;;;4.60;2.30;;;33.10;61.10;;;;;;6368900;22;20002;-66
2022/08/11 14:25:14;;;;;;;4.30;1.92;;;33.10;60.10;;;;;;6367159;22;20428;-66
2022/08/11 14:27:40;;;;;;;4.82;1.85;;;33.20;60.00;;;;;;6365320;22;20490;-66
2022/08/11 14:30:53;;;;;;;1.90;1.80;;;33.30;59.50;;;;;;6366643;22;20073;-68
2022/08/11 14:32:55;;;;;;;5.68;1.88;;;33.40;59.80;;;;;;6365700;22;20006;-65
2022/08/11 14:35:20;;;;;;;2.15;1.95;;;33.50;59.90;;;;;;6367022;22;20012;-66
2022/08/11 14:37:47;;;;;;;4.47;2.20;;;33.60;60.30;;;;;;6365871;22;20010;-66
2022/08/11 14:47:03;;;;;;;4.57;2.40;;;33.70;58.40;;;;;;6365650;22;20003;-66
2022/08/11 14:48:29;;;;;;;1.80;1.70;;;33.80;59.30;;;;;;6366392;22;20093;-67
2022/08/11 14:50:55;;;;;;;2.78;2.15;;;33.80;59.00;;;;;;6366689;22;20416;-67
2022/08/11 14:53:22;;;;;;;2.10;1.70;;;34.00;59.80;;;;;;6366832;22;19998;-66
2022/08/11 14:58:33;;;;;;;2.42;2.03;;;33.90;59.10;;;;;;6370797;22;20017;-67
2022/08/11 15:01:01;;;;;;;2.25;2.10;;;33.80;58.30;;;;;;6368185;22;20058;-66
2022/08/11 15:03:30;;;;;;;5.28;2.03;;;33.80;57.40;;;;;;6366187;22;20345;-66
2022/08/11 15:06:00;;;;;;;2.13;1.85;;;33.80;58.20;;;;;;6366855;22;20307;-67
2022/08/11 15:14:03;;;;;;;8.32;2.05;;;34.20;57.30;;;;;;6366462;22;20045;-66
2022/08/11 15:19:15;;;;;;;2.72;1.75;;;34.40;57.80;;;;;;6368366;22;20326;-66
2022/08/11 15:24:25;;;;;;;7.40;2.50;;;34.60;55.50;;;;;;6367627;22;20334;-66
2022/08/11 15:38:02;;;;;;;3.95;2.13;;;33.80;62.60;;;;;;6368202;22;20032;-66
2022/08/11 15:46:34;;;;;;;2.40;2.20;;;33.20;64.40;;;;;;6368151;22;20013;-67
2022/08/11 15:49:09;;;;;;;1.98;1.73;;;33.10;65.60;;;;;;6368292;22;20442;-66
2022/08/11 15:51:39;;;;;;;6.32;3.22;;;32.90;65.90;;;;;;6367644;22;20441;-66
2022/08/11 15:54:10;;;;;;;;;;;33.00;64.50;;;;;;6369061;22;20051;-65
2022/08/11 15:56:40;;;;;;;3.53;2.20;;;32.90;65.30;;;;;;6368688;22;20222;-66
2022/08/11 16:04:40;;;;;;;14.15;2.08;;;33.00;64.70;;;;;;6367601;22;20009;-66
2022/08/11 16:07:15;;;;;;;2.90;1.50;;;33.00;64.70;;;;;;6368447;22;20003;-66
2022/08/11 16:09:46;;;;;;;3.83;1.60;;;33.00;65.70;;;;;;6368451;22;20050;-66
2022/08/11 16:12:14;;;;;;;11.13;2.65;;;32.80;67.00;;;;;;6367649;22;20017;-66
2022/08/11 16:17:39;;;;;;;4.50;1.83;;;33.20;64.80;;;;;;6368253;22;20441;-66
2022/08/11 16:20:07;;;;;;;5.20;1.85;;;33.30;65.20;;;;;;6367511;22;20002;-67
2022/08/11 16:22:45;;;;;;;2.50;1.60;;;33.30;64.90;;;;;;6368371;22;19999;-66
2022/08/11 16:25:16;;;;;;;3.70;2.00;;;33.40;65.20;;;;;;6367431;22;20003;-67
2022/08/11 16:27:46;;;;;;;11.45;2.38;;;33.60;65.10;;;;;;6368725;22;20106;-66
2022/08/11 16:30:13;;;;;;;3.08;1.92;;;33.80;65.00;;;;;;6368417;22;19998;-66
2022/08/11 16:32:42;;;;;;;1.80;1.70;;;33.80;65.30;;;;;;6367729;22;20077;-66
2022/08/11 16:40:49;;;;;;;1.70;1.60;;;33.60;64.90;;;;;;6367502;22;20506;-66
2022/08/11 16:48:49;;;;;;;4.18;2.00;;;33.60;66.70;;;;;;6368265;22;20499;-65
2022/08/11 16:51:15;;;;;;;2.17;1.80;;;33.70;66.20;;;;;;6368326;22;20006;-65
2022/08/11 16:53:44;;;;;;;5.00;1.88;;;33.50;67.20;;;;;;6369106;22;19998;-66
2022/08/11 16:56:15;;;;;;;3.70;2.08;;;33.50;67.60;;;;;;6369481;22;20445;-67
2022/08/11 16:59:24;;;;;;;2.42;1.88;;;33.50;65.80;;;;;;6370206;22;20444;-66
2022/08/11 17:01:32;;;;;;;5.03;2.00;;;33.40;65.00;;;;;;6352423;22;20085;-67
2022/08/11 17:13:07;;;;;;;2.95;2.00;;;33.30;65.70;;;;;;6370603;22;20073;-67
2022/08/11 17:18:38;;;;;;;5.65;1.90;;;32.70;67.00;;;;;;6369438;22;20402;-66
2022/08/11 17:21:03;;;;;;;2.17;1.73;;;32.70;68.40;;;;;;6369497;22;20010;-67
2022/08/11 17:23:48;;;;;;;4.53;2.20;;;32.60;68.90;;;;;;6369153;22;19998;-66
2022/08/11 17:26:24;;;;;;;3.60;1.63;;;32.50;69.10;;;;;;6369822;22;20047;-66
2022/08/11 17:28:55;;;;;;;2.22;1.70;;;32.20;68.20;;;;;;6368906;22;20438;-66
2022/08/11 17:36:54;;;;;;;5.57;1.80;;;32.00;69.10;;;;;;6368602;22;20020;-66
2022/08/11 17:39:23;;;;;;;2.22;1.70;;;32.00;69.20;;;;;;6369261;22;20026;-67
2022/08/11 17:50:08;;;;;;;4.60;2.30;;;31.70;69.40;;;;;;6368500;22;20428;-66
2022/08/11 18:00:53;;;;;;;4.45;1.92;;;31.60;69.80;;;;;;6369612;22;20082;-66
2022/08/11 18:03:31;;;;;;;2.92;2.00;;;31.50;70.30;;;;;;6369232;22;20426;-66
2022/08/11 18:06:00;;;;;;;2.33;2.13;;;31.50;70.60;;;;;;6369480;22;20028;-67
